Ankeny Regional Airport
Tuesday 12:35 PM
Weather Sunny
VFR
Temperature 54°
Dew Point 34°
Feels Like 54°
Relative Humidity 47
%
Visibility 10
mi
Pressure 994.6
mb
Wind Direction WNW
Wind Speed 17
mph
Last Hour Precip 0.00
"
KIKV 271835Z AUTO 30015G22KT 10SM CLR 12/01 A2937 RMK AO2

Recent Observations

Time Present Weather Temp DP Feels RH% Vsby Pressure Ceiling Direction Speed Gust 1h Precip
12:35PM
VFR
54° 34° 54° 47
%
10
mi
994.6
mb
None WNW 17
mph
25
mph
0.00"
KIKV 271835Z AUTO 30015G22KT 10SM CLR 12/01 A2937 RMK AO2
12:15PM
VFR
54° 34° 54° 47
%
10
mi
994.6
mb
None NNW 22
mph
0.00"
KIKV 271815Z AUTO 33019KT 10SM CLR 12/01 A2937 RMK AO2
11:55AM
VFR
57° 34° 57° 41
%
9
mi
994.6
mb
None NW 20
mph
0.00"
KIKV 271755Z AUTO 32017KT 9SM CLR 14/01 A2937 RMK AO2
11:35AM
VFR
57° 32° 57° 38
%
7
mi
994.6
mb
None NW 18
mph
0.00"
KIKV 271735Z AUTO 32016KT 7SM CLR 14/00 A2937 RMK AO2
11:15AM
VFR
61° 30° 61° 31
%
10
mi
994.2
mb
None NW 17
mph
0.00"
KIKV 271715Z AUTO 31015KT 10SM CLR 16/M01 A2936 RMK AO2
10:55AM
VFR
61° 28° 61° 29
%
9
mi
994.2
mb
None WNW 13
mph
21
mph
0.00"
KIKV 271655Z AUTO 30011G18KT 9SM CLR 16/M02 A2936 RMK AO2
10:35AM
VFR
61° 28° 61° 29
%
10
mi
994.6
mb
None WNW 15
mph
0.00"
KIKV 271635Z AUTO 29013KT 10SM CLR 16/M02 A2937 RMK AO2
10:15AM
VFR
61° 28° 61° 29
%
9
mi
994.6
mb
None W 9
mph
0.00"
KIKV 271615Z AUTO 27008KT 9SM CLR 16/M02 A2937 RMK AO2
9:55AM
VFR
61° 27° 61° 27
%
10
mi
994.2
mb
None W 12
mph
0.00"
KIKV 271555Z AUTO 28010KT 10SM CLR 16/M03 A2936 RMK AO2
9:35AM
VFR
61° 27° 61° 27
%
9
mi
993.6
mb
None NW 8
mph
0.00"
KIKV 271535Z AUTO 31007KT 9SM CLR 16/M03 A2934 RMK AO2
9:15AM
VFR
59° 27° 59° 29
%
10
mi
993.2
mb
None NW 9
mph
0.00"
KIKV 271515Z AUTO 31008KT 10SM CLR 15/M03 A2933 RMK AO2
8:55AM
VFR
57° 27° 57° 31
%
10
mi
993.2
mb
None NW 7
mph
0.00"
KIKV 271455Z AUTO 31006KT 10SM CLR 14/M03 A2933 RMK AO2
8:35AM
VFR
55° 27° 55° 33
%
9
mi
993.6
mb
None WNW 8
mph
0.00"
KIKV 271435Z AUTO 29007KT 9SM CLR 13/M03 A2934 RMK AO2
8:15AM
VFR
54° 27° 54° 35
%
9
mi
993.6
mb
None W 8
mph
0.00"
KIKV 271415Z AUTO 28007KT 9SM CLR 12/M03 A2934 RMK AO2
7:55AM
VFR
54° 27° 54° 35
%
10
mi
993.6
mb
None W 9
mph
0.00"
KIKV 271355Z AUTO 28008KT 10SM CLR 12/M03 A2934 RMK AO2
7:35AM 48° 28° 45° 46
%
993.6
mb
None W 8
mph
0.00"
KIKV 271335Z AUTO 28007KT CLR 09/M02 A2934 RMK AO2
7:15AM
VFR
43° 27° 40° 52
%
9
mi
993.2
mb
None W 5
mph
0.00"
KIKV 271315Z AUTO 26004KT 9SM CLR 06/M03 A2933 RMK AO2
6:55AM
VFR
36° 25° 33° 64
%
9
mi
993.6
mb
None SSE 3
mph
0.00"
KIKV 271255Z AUTO 16003KT 9SM CLR 02/M04 A2934 RMK AO2
6:35AM
VFR
37° 27° 37° 65
%
9
mi
993.2
mb
None None Calm 0.00"
KIKV 271235Z AUTO 00000KT 9SM CLR 03/M03 A2933 RMK AO2
6:15AM
VFR
39° 25° 37° 56
%
10
mi
993.2
mb
None WSW 3
mph
0.00"
KIKV 271215Z AUTO 25003KT 10SM CLR 04/M04 A2933 RMK AO2
Click here to show this page without METARs/TAFs included